Fenton, MI

2:12 AM EST on February 11, 2016 (GMT -0500)
Waters Edge-Loon Ct. | | Change Station
CLOSE
Current Station
Personal Weather Station
Location: Fenton, MI
Elevation: 948 ft
Nearby Weather Stations

Elev 948 ft 42.79 °N, 83.69 °W | Updated 33 seconds ago

Overcast
Overcast
9.9 °F
Feels Like 10 °F
N
0.0
Wind Variable Wind from SSE
Gusts 0.0 mph

Today
High -- | Low -- °F
--% Chance of Precip.
Yesterday
High -- | Low -- °F
Precip. -- in
Pressure 30.08 in
Visibility 10.0 miles
Clouds Overcast 5000 ft
Windchill 10 °F
Dew Point -2 °F
Humidity 58%
Rainfall 0.00 in
Snow Depth Not available.
7:38 AM 6:00 PM
Waxing Crescent, 10% visible
METAR KFNT 110653Z 30005KT 10SM OVC050 M11/M18 A3003 RMK AO2 SLP186 T11111178 $
Pressure 30.08 in
Visibility 10.0 miles
Clouds Overcast 5000 ft
Windchill 10 °F
Dew Point -2 °F
Humidity 58%
Rainfall 0.00 in
Snow Depth Not available.
7:38 AM 6:00 PM
Waxing Crescent, 10% visible
METAR KFNT 110653Z 30005KT 10SM OVC050 M11/M18 A3003 RMK AO2 SLP186 T11111178 $

10-Day Weather Forecast

Almanac

Astronomy

Feb. 11, 2016 Rise Set
Actual Time
Civil Twilight
Nautical Twilight
Astronomical Twilight
Moon
Length of Visible Light
Length of Day
Tomorrow will be .
, % of the Moon is Illuminated

Today's Extremes

State Highs State Lows

Community

WunderPhotos

Upload Photos

1,892,030 photos uploaded!

WunderBlog® & News

Nearby

Air Quality

  Air Quality AQ Index Pollutant
Not available.

Snow Depth

Station Depth Elevation

Earthquake Activity

City Distance Mag. Time & Date
Minimum magnitude displayed is 2.5.

Coastal Water Temperatures

Place Temperature

Stations

Nearby Weather Stations

Station Location Temp. Windchill Dew Point Humidity Wind Precip. Elev Updated Type
                   

Watches & Warnings

There are currently no watches in effect.